Time;durP1;ratioP1;P1;durP2;ratioP2;P2;SDS_P1;SDS_P2;PMS_P1;PMS_P2;Temp;Humidity;BMP_temperature;BMP_pressure;BME280_temperature;BME280_humidity;BME280_pressure;Samples;Min_cycle;Max_cycle;Signal;HPM_P1;HPM_P2
2023/04/26 00:01:41;;;;;;;5.20;2.10;;;3.90;99.90;;;;;;5074007;28;20059;-62
2023/04/26 00:04:07;;;;;;;9.60;2.93;;;3.90;99.90;;;;;;5068600;28;20032;-62
2023/04/26 00:06:34;;;;;;;4.35;2.58;;;3.90;99.90;;;;;;5067132;28;20438;-62
2023/04/26 00:09:00;;;;;;;4.03;2.33;;;3.80;99.90;;;;;;5072100;28;20048;-62
2023/04/26 00:11:25;;;;;;;5.43;2.43;;;3.80;99.90;;;;;;5073352;28;20021;-81
2023/04/26 00:13:51;;;;;;;7.30;2.60;;;3.70;99.90;;;;;;5065043;28;20464;-62
2023/04/26 00:16:17;;;;;;;4.17;2.23;;;3.70;99.90;;;;;;5073256;28;20047;-62
2023/04/26 00:18:45;;;;;;;10.60;2.33;;;3.70;99.90;;;;;;5073112;28;20089;-62
2023/04/26 00:21:11;;;;;;;10.82;2.40;;;3.70;99.90;;;;;;5075235;28;20017;-62
2023/04/26 00:23:37;;;;;;;6.45;2.30;;;3.70;99.90;;;;;;5075881;28;20324;-62
2023/04/26 00:26:03;;;;;;;14.00;2.87;;;3.60;99.90;;;;;;5075617;28;20040;-62
2023/04/26 00:28:30;;;;;;;7.57;2.90;;;3.50;99.90;;;;;;5077668;28;20055;-82
2023/04/26 00:30:56;;;;;;;;;;;3.50;99.90;;;;;;5076951;28;20042;-62
2023/04/26 00:33:25;;;;;;;5.93;2.03;;;3.50;99.90;;;;;;5076285;28;20305;-62
2023/04/26 00:35:51;;;;;;;3.63;1.98;;;3.50;99.90;;;;;;5075932;28;20029;-62
2023/04/26 00:38:17;;;;;;;6.03;1.27;;;3.50;99.90;;;;;;5070481;28;20028;-62
2023/04/26 00:40:42;;;;;;;5.20;2.50;;;3.50;99.90;;;;;;5073270;28;20272;-62
2023/04/26 00:43:09;;;;;;;6.10;2.53;;;3.50;99.90;;;;;;5067945;28;20031;-62
2023/04/26 00:45:35;;;;;;;3.92;1.90;;;3.60;99.90;;;;;;5076148;28;20052;-62
2023/04/26 00:48:02;;;;;;;4.10;2.08;;;3.60;99.90;;;;;;5075426;28;20036;-62
2023/04/26 00:50:30;;;;;;;6.68;2.72;;;3.60;99.90;;;;;;5073100;28;20013;-62
2023/04/26 00:52:57;;;;;;;6.78;2.13;;;3.60;99.90;;;;;;5067154;28;20029;-62
2023/04/26 00:55:25;;;;;;;7.70;2.70;;;3.50;99.90;;;;;;5076778;28;20052;-64
2023/04/26 00:57:51;;;;;;;4.70;2.45;;;3.40;99.90;;;;;;5077401;28;20033;-62
2023/04/26 01:00:17;;;;;;;7.13;2.30;;;3.40;99.90;;;;;;5062255;28;20366;-62
2023/04/26 01:02:43;;;;;;;8.93;2.20;;;3.30;99.90;;;;;;5063672;28;20082;-63
2023/04/26 01:05:09;;;;;;;6.87;2.57;;;3.30;99.90;;;;;;5076799;28;20037;-62
2023/04/26 01:07:37;;;;;;;7.07;2.42;;;3.30;99.90;;;;;;5075540;28;20033;-63
2023/04/26 01:10:04;;;;;;;6.78;1.88;;;3.30;99.90;;;;;;5074765;28;20114;-62
2023/04/26 01:12:31;;;;;;;5.00;2.35;;;3.30;99.90;;;;;;5075844;28;20073;-63
2023/04/26 01:14:58;;;;;;;6.05;2.22;;;3.30;99.90;;;;;;5070191;28;20025;-62
2023/04/26 01:17:24;;;;;;;7.93;1.85;;;3.20;99.90;;;;;;5071274;28;20060;-62
2023/04/26 01:19:50;;;;;;;7.45;2.63;;;3.20;99.90;;;;;;5074581;28;20032;-62
2023/04/26 01:22:16;;;;;;;11.25;2.25;;;3.10;99.90;;;;;;5075928;28;20075;-62
2023/04/26 01:24:45;;;;;;;5.27;2.13;;;3.10;99.90;;;;;;5070978;28;20052;-62
2023/04/26 01:27:11;;;;;;;5.45;2.33;;;3.10;99.90;;;;;;5075814;28;20032;-82
2023/04/26 01:29:37;;;;;;;6.10;2.38;;;3.10;99.90;;;;;;5075441;28;20340;-62
2023/04/26 01:32:03;;;;;;;8.10;1.80;;;3.10;99.90;;;;;;5073827;28;20036;-62
2023/04/26 01:34:29;;;;;;;10.77;2.63;;;3.10;99.90;;;;;;5075513;28;20025;-62
2023/04/26 01:36:55;;;;;;;4.90;2.30;;;3.00;99.90;;;;;;5074659;28;20647;-63
2023/04/26 01:39:21;;;;;;;5.47;2.27;;;3.00;99.90;;;;;;5073050;28;20035;-62
2023/04/26 01:41:47;;;;;;;7.30;2.63;;;3.00;99.90;;;;;;5073054;28;20024;-62
2023/04/26 01:44:12;;;;;;;7.73;2.67;;;2.90;99.90;;;;;;5070102;28;20126;-62
2023/04/26 01:46:38;;;;;;;4.87;2.27;;;2.90;99.90;;;;;;5074778;28;20029;-62
2023/04/26 01:49:04;;;;;;;5.33;2.77;;;2.90;99.90;;;;;;5067536;28;20420;-62
2023/04/26 01:51:30;;;;;;;5.57;1.70;;;2.90;99.90;;;;;;5071089;28;20036;-63
2023/04/26 01:53:55;;;;;;;6.10;2.87;;;2.90;99.90;;;;;;5073113;28;20074;-63
2023/04/26 01:56:23;;;;;;;7.53;2.77;;;2.90;99.90;;;;;;5066858;28;20024;-62
2023/04/26 01:58:49;;;;;;;15.63;2.78;;;2.90;99.90;;;;;;5068568;28;20051;-63
2023/04/26 02:01:14;;;;;;;9.00;2.00;;;2.90;99.90;;;;;;5059713;28;20036;-62
2023/04/26 02:03:40;;;;;;;6.93;2.80;;;2.90;99.90;;;;;;5068287;28;20031;-62
2023/04/26 02:06:06;;;;;;;10.17;3.67;;;2.90;99.90;;;;;;5067178;28;20051;-62
2023/04/26 02:08:32;;;;;;;10.63;3.93;;;2.90;99.90;;;;;;5074991;28;20036;-62
2023/04/26 02:10:58;;;;;;;9.90;3.67;;;2.80;99.90;;;;;;5073786;28;20028;-62
2023/04/26 02:13:24;;;;;;;6.70;3.67;;;2.80;99.90;;;;;;5069823;28;20078;-62
2023/04/26 02:15:50;;;;;;;4.57;2.60;;;2.80;99.90;;;;;;5072024;28;20025;-62
2023/04/26 02:18:16;;;;;;;5.82;2.83;;;2.70;99.90;;;;;;5074128;28;20082;-62
2023/04/26 02:20:43;;;;;;;8.48;2.90;;;2.70;99.90;;;;;;5075664;28;20016;-62
2023/04/26 02:23:10;;;;;;;6.50;2.78;;;2.70;99.90;;;;;;5071832;28;20021;-62
2023/04/26 02:25:36;;;;;;;6.45;3.42;;;2.70;99.90;;;;;;5073454;28;20419;-62
2023/04/26 02:28:03;;;;;;;7.77;3.47;;;2.70;99.90;;;;;;5071814;28;20036;-63
2023/04/26 02:30:29;;;;;;;6.72;3.03;;;2.70;99.90;;;;;;5069935;28;20331;-62
2023/04/26 02:32:55;;;;;;;7.57;3.58;;;2.70;99.90;;;;;;5071472;28;20025;-62
2023/04/26 02:35:21;;;;;;;6.45;2.72;;;2.70;99.90;;;;;;5070190;28;20048;-62
2023/04/26 02:37:51;;;;;;;13.38;3.85;;;2.70;99.90;;;;;;5073303;28;20021;-62
2023/04/26 02:40:20;;;;;;;8.93;3.13;;;2.70;99.90;;;;;;5074188;28;20036;-62
2023/04/26 02:42:46;;;;;;;5.00;2.85;;;2.70;99.90;;;;;;5106919;28;20541;-63
2023/04/26 02:45:12;;;;;;;13.98;3.67;;;2.60;99.90;;;;;;5074204;28;20036;-62
2023/04/26 02:47:38;;;;;;;13.55;4.10;;;2.60;99.90;;;;;;5063871;28;20109;-62
2023/04/26 02:50:08;;;;;;;11.00;3.27;;;2.60;99.90;;;;;;5069801;28;20418;-62
2023/04/26 02:52:36;;;;;;;8.73;3.28;;;2.70;99.90;;;;;;5074684;28;20021;-62
2023/04/26 02:55:03;;;;;;;9.18;3.10;;;2.70;99.90;;;;;;5074887;28;20032;-62
2023/04/26 02:57:32;;;;;;;9.38;3.35;;;2.70;99.90;;;;;;5067632;28;20020;-62
2023/04/26 02:59:58;;;;;;;8.60;3.55;;;2.70;99.90;;;;;;5070986;28;20064;-62
2023/04/26 03:02:24;;;;;;;8.77;3.73;;;2.70;99.90;;;;;;5071997;28;20098;-62
2023/04/26 03:04:50;;;;;;;6.30;3.00;;;2.60;99.90;;;;;;5062786;28;20028;-62
2023/04/26 03:07:15;;;;;;;14.07;3.40;;;2.60;99.90;;;;;;5072526;28;20032;-63
2023/04/26 03:09:41;;;;;;;8.50;3.57;;;2.70;99.90;;;;;;5074364;28;20371;-62
2023/04/26 03:12:07;;;;;;;10.53;3.40;;;2.70;99.90;;;;;;5075055;28;20077;-62
2023/04/26 03:14:34;;;;;;;9.07;4.32;;;2.70;99.90;;;;;;5072087;28;20439;-62
2023/04/26 03:17:00;;;;;;;10.32;4.82;;;2.70;99.90;;;;;;5062950;28;20108;-63
2023/04/26 03:19:27;;;;;;;10.40;4.88;;;2.70;99.90;;;;;;5072122;28;20037;-62
2023/04/26 03:21:53;;;;;;;8.60;2.92;;;2.70;99.90;;;;;;5072937;28;20086;-62
2023/04/26 03:24:19;;;;;;;7.57;3.33;;;2.50;99.90;;;;;;5067247;28;20028;-62
2023/04/26 03:26:45;;;;;;;11.37;3.60;;;2.50;99.90;;;;;;5074246;28;20373;-62
2023/04/26 03:29:11;;;;;;;5.23;3.27;;;2.40;99.90;;;;;;5073017;28;20048;-62
2023/04/26 03:31:37;;;;;;;7.97;3.23;;;2.40;99.90;;;;;;5073613;28;20029;-62
2023/04/26 03:34:03;;;;;;;11.05;2.65;;;2.40;99.90;;;;;;5072503;28;20032;-63
2023/04/26 03:36:29;;;;;;;9.30;3.30;;;2.40;99.90;;;;;;5073762;28;20025;-62
2023/04/26 03:38:55;;;;;;;7.30;4.10;;;2.50;99.90;;;;;;5071922;28;20389;-63
2023/04/26 03:41:21;;;;;;;6.10;2.72;;;2.50;99.90;;;;;;5072618;28;20414;-75
2023/04/26 03:43:47;;;;;;;10.18;4.82;;;2.40;99.90;;;;;;5056024;28;20033;-62
2023/04/26 03:46:13;;;;;;;9.93;5.30;;;2.30;99.90;;;;;;5071454;28;20078;-62
2023/04/26 03:48:39;;;;;;;11.17;5.33;;;2.30;99.90;;;;;;5072162;28;20182;-82
2023/04/26 03:51:05;;;;;;;13.27;5.37;;;2.20;99.90;;;;;;5071201;28;20029;-62
2023/04/26 03:53:31;;;;;;;7.47;4.20;;;2.20;99.90;;;;;;5063671;28;20323;-62
2023/04/26 03:55:56;;;;;;;7.57;4.30;;;2.10;99.90;;;;;;5072592;28;20035;-62
2023/04/26 03:58:25;;;;;;;12.80;7.60;;;2.20;99.90;;;;;;5076871;28;20025;-62
2023/04/26 04:00:51;;;;;;;12.07;5.22;;;2.20;99.90;;;;;;5076598;28;20025;-63
2023/04/26 04:03:17;;;;;;;6.07;3.70;;;2.30;99.90;;;;;;5073200;28;20020;-62
2023/04/26 04:05:43;;;;;;;5.87;2.80;;;2.20;99.90;;;;;;5073831;28;20264;-62
2023/04/26 04:08:08;;;;;;;4.53;2.60;;;2.10;99.90;;;;;;5073000;28;20023;-62
2023/04/26 04:10:36;;;;;;;5.17;2.90;;;2.00;99.90;;;;;;5074744;28;20078;-62
2023/04/26 04:13:02;;;;;;;6.50;3.85;;;1.90;99.90;;;;;;5073388;28;20023;-62
2023/04/26 04:15:28;;;;;;;7.60;3.33;;;1.90;99.90;;;;;;5077167;28;20024;-75
2023/04/26 04:17:53;;;;;;;12.90;3.27;;;1.90;99.90;;;;;;5075852;28;20049;-62
2023/04/26 04:20:20;;;;;;;11.90;2.97;;;2.00;99.90;;;;;;5076976;28;20319;-62
2023/04/26 04:22:46;;;;;;;6.95;3.08;;;2.00;99.90;;;;;;5076444;28;20025;-62
2023/04/26 04:25:12;;;;;;;5.20;2.80;;;2.00;99.90;;;;;;5077401;28;20419;-62
2023/04/26 04:27:41;;;;;;;5.30;2.97;;;1.90;99.90;;;;;;5075463;28;20349;-62
2023/04/26 04:30:08;;;;;;;7.22;3.30;;;1.80;99.90;;;;;;5076108;28;20080;-62
2023/04/26 04:32:34;;;;;;;;;;;1.90;99.90;;;;;;5077962;28;20032;-61
2023/04/26 04:35:00;;;;;;;7.50;3.28;;;1.90;99.90;;;;;;5073143;28;19912;-62
2023/04/26 04:37:27;;;;;;;10.73;3.85;;;1.90;99.90;;;;;;5071585;28;20024;-63
2023/04/26 04:39:53;;;;;;;9.30;4.18;;;1.90;99.90;;;;;;5070147;28;20444;-62
2023/04/26 04:42:19;;;;;;;9.55;3.55;;;1.90;99.90;;;;;;5063639;28;20043;-62
2023/04/26 04:44:45;;;;;;;9.77;3.70;;;2.00;99.90;;;;;;5060980;28;20041;-62
2023/04/26 04:47:11;;;;;;;6.40;3.10;;;2.00;99.90;;;;;;5067759;28;20408;-62
2023/04/26 04:49:37;;;;;;;6.43;3.20;;;2.10;99.90;;;;;;5064451;28;20108;-62
2023/04/26 04:52:03;;;;;;;9.17;4.83;;;2.10;99.90;;;;;;5068104;28;20024;-62
2023/04/26 04:54:29;;;;;;;7.93;4.20;;;2.00;99.90;;;;;;5069711;28;20017;-63
2023/04/26 04:56:56;;;;;;;6.23;3.87;;;2.00;99.90;;;;;;5067045;28;20514;-62
2023/04/26 04:59:21;;;;;;;;;;;2.10;99.90;;;;;;5064173;28;20024;-62
2023/04/26 05:01:47;;;;;;;12.47;3.20;;;2.10;99.90;;;;;;5067360;28;19911;-62
2023/04/26 05:04:13;;;;;;;7.10;3.90;;;2.20;99.90;;;;;;5065199;28;20028;-61
2023/04/26 05:06:39;;;;;;;10.23;4.17;;;2.20;99.90;;;;;;5061211;28;20025;-79
2023/04/26 05:09:04;;;;;;;8.60;4.27;;;2.20;99.90;;;;;;5064130;28;20027;-62
2023/04/26 05:11:31;;;;;;;22.87;5.00;;;2.30;99.90;;;;;;5100672;28;20112;-62
2023/04/26 05:13:57;;;;;;;9.75;4.10;;;2.40;99.90;;;;;;5064202;28;20321;-62
2023/04/26 05:16:23;;;;;;;10.60;4.30;;;2.50;99.90;;;;;;5063916;28;20095;-63
2023/04/26 05:18:48;;;;;;;10.67;4.03;;;2.60;99.90;;;;;;5063610;28;20371;-62
2023/04/26 05:21:14;;;;;;;16.30;4.20;;;2.60;99.90;;;;;;5067352;28;20033;-62
2023/04/26 05:23:40;;;;;;;10.17;4.40;;;2.70;99.90;;;;;;5063294;28;20099;-62
2023/04/26 05:26:06;;;;;;;14.10;4.80;;;2.70;99.90;;;;;;5058193;28;20105;-62
2023/04/26 05:28:35;;;;;;;10.95;4.00;;;2.90;99.90;;;;;;5062492;28;20049;-63
2023/04/26 05:31:01;;;;;;;9.05;3.47;;;3.20;99.90;;;;;;5069838;28;20036;-77
2023/04/26 05:33:27;;;;;;;9.90;3.60;;;3.30;99.90;;;;;;5075017;28;20027;-63
2023/04/26 05:35:54;;;;;;;8.30;3.63;;;3.40;99.90;;;;;;5076581;28;20024;-62
2023/04/26 05:38:20;;;;;;;14.63;4.95;;;3.50;99.90;;;;;;5072595;28;20040;-62
2023/04/26 05:40:49;;;;;;;13.80;4.63;;;3.60;99.90;;;;;;5075159;28;20066;-73
2023/04/26 05:43:15;;;;;;;7.30;3.72;;;3.60;99.90;;;;;;5064033;28;20029;-77
2023/04/26 05:45:50;;;;;;;8.20;4.50;;;3.70;99.90;;;;;;5072189;28;20077;-62
2023/04/26 05:48:15;;;;;;;9.43;4.30;;;3.70;99.90;;;;;;5061008;28;20060;-62
2023/04/26 05:50:41;;;;;;;9.80;4.87;;;3.80;99.90;;;;;;5067443;28;20347;-62
2023/04/26 05:53:07;;;;;;;11.10;5.03;;;3.90;99.90;;;;;;5075641;28;20462;-63
2023/04/26 05:55:33;;;;;;;9.53;5.37;;;4.00;99.90;;;;;;5066607;28;20596;-63
2023/04/26 05:57:58;;;;;;;10.00;4.20;;;4.30;99.90;;;;;;5071999;28;20024;-62
2023/04/26 06:00:24;;;;;;;10.37;4.67;;;4.40;99.90;;;;;;5075515;28;20032;-63
2023/04/26 06:02:50;;;;;;;10.90;4.20;;;4.50;99.90;;;;;;5071044;28;20405;-63
2023/04/26 06:05:16;;;;;;;12.13;4.17;;;4.60;99.90;;;;;;5072076;28;20037;-62
2023/04/26 06:07:42;;;;;;;9.03;4.43;;;4.70;99.90;;;;;;5063568;28;20091;-63
2023/04/26 06:10:09;;;;;;;13.40;4.15;;;4.80;99.90;;;;;;5073267;28;20017;-63
2023/04/26 06:12:35;;;;;;;9.10;4.50;;;4.90;99.90;;;;;;5073884;28;20041;-63
2023/04/26 06:15:00;;;;;;;11.67;4.10;;;5.00;99.90;;;;;;5067090;28;20428;-63
2023/04/26 06:17:26;;;;;;;7.57;4.17;;;5.10;99.90;;;;;;5060292;28;20430;-63
2023/04/26 06:19:52;;;;;;;8.73;3.83;;;5.20;99.90;;;;;;5074272;28;20024;-63
2023/04/26 06:22:17;;;;;;;12.67;4.83;;;5.30;99.90;;;;;;5074141;28;20065;-80
2023/04/26 06:24:43;;;;;;;12.37;5.40;;;5.30;99.90;;;;;;5074449;28;20066;-62
2023/04/26 06:27:08;;;;;;;12.50;4.37;;;5.40;99.90;;;;;;5065611;28;20363;-63
2023/04/26 06:29:34;;;;;;;10.13;4.23;;;5.50;99.90;;;;;;5073419;28;20048;-62
2023/04/26 06:32:00;;;;;;;11.17;3.90;;;5.60;99.90;;;;;;5074560;28;20017;-63
2023/04/26 06:34:26;;;;;;;8.43;4.00;;;5.70;99.90;;;;;;5073399;28;20293;-63
2023/04/26 06:36:52;;;;;;;7.33;3.50;;;5.80;99.90;;;;;;5070856;28;20021;-63
2023/04/26 06:39:17;;;;;;;9.33;3.27;;;6.00;99.90;;;;;;5072683;28;20024;-63
2023/04/26 06:41:43;;;;;;;12.50;3.67;;;6.10;99.90;;;;;;5073691;28;20361;-62
2023/04/26 06:44:09;;;;;;;6.80;3.53;;;6.20;99.90;;;;;;5073149;28;20119;-63
2023/04/26 06:46:34;;;;;;;8.13;3.40;;;6.40;99.90;;;;;;5073895;28;20032;-63
2023/04/26 06:49:00;;;;;;;7.67;3.10;;;6.50;99.90;;;;;;5074467;28;20029;-63
2023/04/26 06:51:28;;;;;;;9.03;3.53;;;6.60;99.90;;;;;;5073910;28;20310;-63
2023/04/26 06:53:54;;;;;;;7.72;2.95;;;6.70;99.90;;;;;;5074126;28;20423;-63
2023/04/26 06:56:20;;;;;;;7.93;3.25;;;6.90;99.90;;;;;;5074939;28;20032;-80
2023/04/26 06:59:00;;;;;;;6.23;3.10;;;6.90;99.90;;;;;;5071326;28;20440;-74
2023/04/26 07:01:28;;;;;;;8.77;3.47;;;7.10;99.90;;;;;;5064933;28;20024;-63
2023/04/26 07:03:55;;;;;;;22.35;4.32;;;7.10;99.90;;;;;;5073983;28;20032;-63
2023/04/26 07:06:23;;;;;;;9.00;3.13;;;7.20;99.90;;;;;;5073459;28;20109;-63
2023/04/26 07:08:48;;;;;;;6.55;3.53;;;7.20;99.90;;;;;;5071356;28;20029;-63
2023/04/26 07:11:14;;;;;;;12.87;3.50;;;7.20;99.90;;;;;;5074512;28;20029;-63
2023/04/26 07:13:40;;;;;;;5.63;3.30;;;7.20;99.90;;;;;;5065904;28;20096;-63
2023/04/26 07:16:05;;;;;;;6.93;2.80;;;7.20;99.90;;;;;;5069626;28;20036;-63
2023/04/26 07:18:31;;;;;;;6.30;2.40;;;7.30;99.90;;;;;;5065374;28;20031;-63
2023/04/26 07:20:57;;;;;;;8.33;3.30;;;7.20;99.90;;;;;;5072305;28;20408;-63
2023/04/26 07:23:22;;;;;;;4.57;2.80;;;7.20;99.90;;;;;;5073284;28;20099;-77
2023/04/26 07:25:48;;;;;;;5.03;1.80;;;7.20;99.90;;;;;;5073713;28;20021;-63
2023/04/26 07:28:14;;;;;;;4.33;2.07;;;7.10;99.90;;;;;;5063828;28;20043;-62
2023/04/26 07:30:40;;;;;;;4.67;1.80;;;7.00;99.90;;;;;;5061477;28;20151;-63
2023/04/26 07:33:06;;;;;;;6.13;2.40;;;6.90;99.90;;;;;;5071096;28;20021;-62
2023/04/26 07:35:34;;;;;;;6.57;2.00;;;6.80;99.90;;;;;;5063138;28;20032;-63
2023/04/26 07:37:59;;;;;;;4.97;1.80;;;6.70;99.90;;;;;;5065708;28;20024;-62
2023/04/26 07:40:28;;;;;;;5.97;2.17;;;6.70;99.90;;;;;;5066625;28;20070;-63
2023/04/26 07:42:53;;;;;;;3.58;1.98;;;6.70;99.90;;;;;;5058274;28;20028;-62
2023/04/26 07:45:19;;;;;;;4.10;2.00;;;6.70;99.90;;;;;;5061230;28;20319;-80
2023/04/26 07:47:45;;;;;;;4.67;2.57;;;6.70;99.90;;;;;;5062527;28;20035;-62
2023/04/26 07:50:11;;;;;;;5.40;2.00;;;6.70;99.90;;;;;;5062410;28;20025;-62
2023/04/26 07:52:37;;;;;;;7.33;2.00;;;6.70;99.90;;;;;;5066064;28;20051;-62
2023/04/26 07:55:02;;;;;;;6.17;2.07;;;6.70;99.90;;;;;;5067649;28;20048;-63
2023/04/26 07:57:28;;;;;;;5.70;2.03;;;6.60;99.90;;;;;;5071083;28;20070;-63
2023/04/26 07:59:54;;;;;;;3.27;1.97;;;6.60;99.90;;;;;;5070170;28;20033;-62
2023/04/26 08:02:20;;;;;;;4.87;2.20;;;6.60;99.90;;;;;;5070145;28;20319;-80
2023/04/26 08:04:51;;;;;;;3.07;1.53;;;6.60;99.90;;;;;;5066942;28;20025;-62
2023/04/26 08:07:17;;;;;;;4.35;1.92;;;6.70;99.90;;;;;;5069486;28;20035;-75
2023/04/26 08:09:43;;;;;;;4.05;2.13;;;6.70;99.90;;;;;;5066021;28;20020;-62
2023/04/26 08:12:10;;;;;;;3.77;1.97;;;6.90;99.90;;;;;;5059555;28;20078;-62
2023/04/26 08:14:37;;;;;;;6.28;2.20;;;7.00;99.90;;;;;;5069086;28;20434;-62
2023/04/26 08:17:03;;;;;;;4.78;1.88;;;7.10;99.90;;;;;;5069738;28;20044;-78
2023/04/26 08:19:31;;;;;;;10.20;2.37;;;7.20;99.90;;;;;;5063811;28;20077;-79
2023/04/26 08:21:57;;;;;;;9.63;2.33;;;7.40;99.90;;;;;;5056337;28;20067;-62
2023/04/26 08:24:23;;;;;;;4.83;2.50;;;7.60;99.90;;;;;;5073296;28;20419;-62
2023/04/26 08:26:48;;;;;;;6.60;1.60;;;7.70;99.90;;;;;;5059709;28;20400;-62
2023/04/26 08:29:15;;;;;;;3.95;1.73;;;7.80;99.90;;;;;;5069622;28;20041;-62
2023/04/26 08:31:41;;;;;;;3.78;2.05;;;7.90;99.90;;;;;;5072694;28;20027;-62
2023/04/26 08:34:12;;;;;;;3.25;1.58;;;8.10;99.90;;;;;;5071857;28;20099;-62
2023/04/26 08:36:38;;;;;;;3.20;1.83;;;8.20;99.90;;;;;;5067862;28;20454;-62
2023/04/26 08:39:04;;;;;;;4.10;2.00;;;8.40;99.90;;;;;;5106267;28;20060;-62
2023/04/26 08:41:35;;;;;;;6.23;1.67;;;8.40;99.90;;;;;;5072927;28;20327;-62
2023/04/26 08:44:04;;;;;;;5.43;2.35;;;8.50;99.90;;;;;;5072035;28;20044;-62
2023/04/26 08:46:40;;;;;;;4.82;2.03;;;8.50;99.90;;;;;;5075381;28;20371;-62
2023/04/26 08:49:31;;;;;;;5.97;2.27;;;8.50;99.90;;;;;;5062493;28;20100;-62
2023/04/26 08:51:57;;;;;;;4.03;1.55;;;8.50;99.90;;;;;;5065695;28;20036;-62
2023/04/26 08:54:24;;;;;;;8.73;2.10;;;8.50;99.90;;;;;;5073005;28;20295;-63
2023/04/26 08:56:51;;;;;;;7.20;2.28;;;8.50;99.90;;;;;;5077657;28;20017;-62
2023/04/26 08:59:19;;;;;;;3.30;1.90;;;8.60;99.90;;;;;;5061628;28;20029;-75
2023/04/26 09:01:45;;;;;;;4.18;1.77;;;8.60;99.90;;;;;;5060747;28;20025;-62
2023/04/26 09:04:11;;;;;;;6.68;1.83;;;8.50;99.90;;;;;;5068463;28;20074;-62
2023/04/26 09:06:37;;;;;;;2.20;1.70;;;8.50;99.90;;;;;;5075505;28;20029;-62
2023/04/26 09:09:07;;;;;;;4.32;1.80;;;8.40;99.90;;;;;;5071143;28;20039;-62
2023/04/26 09:11:52;;;;;;;7.15;2.17;;;8.50;99.90;;;;;;5074938;28;20363;-62
2023/04/26 09:14:18;;;;;;;3.63;1.60;;;8.60;99.90;;;;;;5073146;28;20297;-62
2023/04/26 09:16:44;;;;;;;6.23;1.70;;;8.60;99.90;;;;;;5072733;28;20017;-62
2023/04/26 09:19:10;;;;;;;9.87;2.00;;;8.70;99.90;;;;;;5073127;28;21482;-62
2023/04/26 09:21:43;;;;;;;4.90;1.27;;;8.70;99.90;;;;;;5072303;28;20059;-62
2023/04/26 09:24:09;;;;;;;3.13;1.13;;;8.90;99.90;;;;;;5075496;28;20040;-62
2023/04/26 09:26:35;;;;;;;7.20;1.20;;;8.90;99.90;;;;;;5066123;28;20052;-63
2023/04/26 09:29:20;;;;;;;7.10;1.40;;;9.10;99.90;;;;;;5075146;28;20114;-62
2023/04/26 09:31:48;;;;;;;3.33;1.00;;;9.30;99.90;;;;;;5074610;28;20033;-62
2023/04/26 09:34:14;;;;;;;3.10;1.45;;;9.40;99.90;;;;;;5072330;28;20089;-62
2023/04/26 09:36:47;;;;;;;2.65;1.27;;;9.40;99.90;;;;;;5072760;28;20368;-62
2023/04/26 09:39:13;;;;;;;2.67;1.25;;;9.50;99.90;;;;;;5074905;28;20074;-62
2023/04/26 09:41:43;;;;;;;2.20;0.90;;;9.60;99.90;;;;;;5074482;28;20028;-62
2023/04/26 09:44:22;;;;;;;1.45;1.10;;;9.60;99.90;;;;;;5074551;28;20450;-62
2023/04/26 09:47:08;;;;;;;2.78;1.20;;;9.60;99.90;;;;;;5069111;28;20048;-62
2023/04/26 09:49:43;;;;;;;;;;;9.50;99.90;;;;;;5074920;28;20086;-62
2023/04/26 09:52:09;;;;;;;8.75;1.20;;;9.60;99.90;;;;;;5071834;28;19913;-62
2023/04/26 09:54:42;;;;;;;1.40;1.20;;;9.50;99.90;;;;;;5061064;28;20411;-62
2023/04/26 09:57:09;;;;;;;5.38;1.58;;;9.50;99.90;;;;;;5073115;28;20056;-62
2023/04/26 09:59:40;;;;;;;12.30;1.15;;;9.40;99.90;;;;;;5075714;28;20070;-62
2023/04/26 10:02:12;;;;;;;6.07;1.08;;;9.00;99.90;;;;;;5074016;28;20106;-62
2023/04/26 10:04:38;;;;;;;6.15;1.00;;;8.90;99.90;;;;;;5064303;28;20056;-62
2023/04/26 10:07:04;;;;;;;7.37;1.20;;;8.90;99.90;;;;;;5072103;28;20040;-62
2023/04/26 10:09:31;;;;;;;3.03;1.00;;;9.00;99.90;;;;;;5075069;28;20281;-62
2023/04/26 10:11:58;;;;;;;2.17;1.50;;;9.00;99.90;;;;;;5075430;28;20451;-78
2023/04/26 10:14:25;;;;;;;2.65;1.40;;;8.90;99.90;;;;;;5075360;28;20021;-63
2023/04/26 10:16:53;;;;;;;3.03;1.55;;;8.90;99.90;;;;;;5075336;28;20008;-62
2023/04/26 10:19:20;;;;;;;3.70;1.17;;;8.90;99.90;;;;;;5075765;28;20044;-76
2023/04/26 10:21:48;;;;;;;1.52;1.30;;;9.00;99.90;;;;;;5069961;28;20029;-62
2023/04/26 10:24:14;;;;;;;2.63;1.10;;;8.90;99.90;;;;;;5075175;28;20721;-62
2023/04/26 10:26:52;;;;;;;5.80;1.20;;;9.10;99.90;;;;;;5067274;28;20044;-62
2023/04/26 10:29:21;;;;;;;3.50;1.45;;;9.20;99.90;;;;;;5075156;28;20424;-62
2023/04/26 10:32:03;;;;;;;3.33;1.13;;;8.80;99.90;;;;;;5074669;28;20409;-62
2023/04/26 10:34:30;;;;;;;3.95;1.42;;;8.80;99.90;;;;;;5075295;28;20027;-62
2023/04/26 10:37:17;;;;;;;2.83;1.08;;;8.90;99.90;;;;;;5073253;28;20029;-62
2023/04/26 10:39:44;;;;;;;3.55;1.00;;;9.00;99.90;;;;;;5073973;28;20158;-63
2023/04/26 10:42:23;;;;;;;2.50;1.40;;;9.20;99.90;;;;;;5073515;28;20027;-62
2023/04/26 10:44:50;;;;;;;5.53;1.38;;;9.30;99.90;;;;;;5074231;28;20029;-62
2023/04/26 10:47:37;;;;;;;1.40;1.08;;;9.70;99.90;;;;;;5088318;28;20028;-62
2023/04/26 10:50:11;;;;;;;2.53;1.27;;;9.70;99.90;;;;;;5073770;28;20036;-62
2023/04/26 10:53:04;;;;;;;3.72;1.10;;;9.70;99.90;;;;;;5075159;28;20020;-62
2023/04/26 10:55:40;;;;;;;1.60;1.00;;;9.30;99.90;;;;;;5074223;28;20020;-62
2023/04/26 10:58:33;;;;;;;1.42;1.23;;;9.40;99.90;;;;;;5073744;28;20077;-62
2023/04/26 11:01:05;;;;;;;6.43;1.30;;;9.80;99.90;;;;;;5061820;28;20112;-62
2023/04/26 11:03:31;;;;;;;5.75;1.75;;;10.30;99.90;;;;;;5071885;28;20034;-63
2023/04/26 11:05:57;;;;;;;9.87;1.30;;;10.40;99.90;;;;;;5066264;28;20028;-62
2023/04/26 11:08:29;;;;;;;3.60;1.20;;;10.70;99.90;;;;;;5064135;28;20020;-63
2023/04/26 11:11:02;;;;;;;4.03;1.48;;;10.50;99.90;;;;;;5069450;28;20024;-62
2023/04/26 11:13:41;;;;;;;4.82;1.38;;;10.60;99.90;;;;;;5071849;28;20416;-63
2023/04/26 11:16:09;;;;;;;4.85;1.33;;;10.40;99.90;;;;;;5071995;28;20351;-62
2023/04/26 11:18:37;;;;;;;8.73;1.75;;;10.30;99.90;;;;;;5069438;28;20071;-63
2023/04/26 11:21:05;;;;;;;4.45;1.60;;;10.30;99.90;;;;;;5068561;28;20028;-63
2023/04/26 11:23:31;;;;;;;2.33;1.02;;;10.70;99.90;;;;;;5069946;28;20020;-78
2023/04/26 11:26:03;;;;;;;6.88;1.17;;;10.70;99.90;;;;;;5071559;28;20048;-62
2023/04/26 11:28:30;;;;;;;3.05;1.30;;;10.80;99.90;;;;;;5098803;28;20097;-63
2023/04/26 11:30:56;;;;;;;3.05;1.05;;;10.50;99.90;;;;;;5072061;28;20033;-62
2023/04/26 11:33:22;;;;;;;4.10;1.60;;;9.90;99.90;;;;;;5072500;28;20055;-62
2023/04/26 11:35:52;;;;;;;7.50;1.25;;;9.50;99.90;;;;;;5072170;28;20647;-62
2023/04/26 11:38:22;;;;;;;2.42;1.30;;;9.10;99.90;;;;;;5070914;28;20120;-77
2023/04/26 11:41:01;;;;;;;7.10;1.58;;;8.80;99.90;;;;;;5102210;28;20025;-63
2023/04/26 11:43:37;;;;;;;1.95;1.20;;;8.60;99.90;;;;;;5069540;28;20039;-62
2023/04/26 11:46:04;;;;;;;3.58;1.17;;;8.50;99.90;;;;;;5071475;28;20461;-62
2023/04/26 11:48:30;;;;;;;3.03;1.45;;;8.60;99.90;;;;;;5070720;28;20082;-63
2023/04/26 11:51:00;;;;;;;3.75;1.30;;;8.70;99.90;;;;;;5071985;28;20028;-62
2023/04/26 11:53:44;;;;;;;4.55;1.52;;;8.90;99.90;;;;;;5070075;28;20028;-63
2023/04/26 11:56:17;;;;;;;8.02;1.67;;;9.00;99.90;;;;;;5073208;28;20025;-70
2023/04/26 11:58:51;;;;;;;2.08;1.52;;;9.00;99.90;;;;;;5068579;28;20033;-62
2023/04/26 12:01:34;;;;;;;4.53;2.10;;;9.10;99.90;;;;;;5071399;28;20039;-69
2023/04/26 12:04:00;;;;;;;4.93;1.88;;;9.00;99.90;;;;;;5069968;28;20324;-62
2023/04/26 12:06:41;;;;;;;2.73;1.63;;;9.10;99.90;;;;;;5062598;28;20029;-63
2023/04/26 12:09:10;;;;;;;5.25;1.80;;;9.10;99.90;;;;;;5068773;28;20170;-62
2023/04/26 12:11:36;;;;;;;6.25;1.30;;;9.10;99.90;;;;;;5070767;28;20047;-78
2023/04/26 12:14:02;;;;;;;6.97;1.97;;;9.10;99.90;;;;;;5072068;28;20431;-62
2023/04/26 12:16:28;;;;;;;6.32;2.03;;;9.20;99.90;;;;;;5080550;28;20106;-62
2023/04/26 12:18:57;;;;;;;6.70;1.90;;;9.30;99.90;;;;;;5071872;28;20518;-62
2023/04/26 12:21:23;;;;;;;8.43;4.53;;;9.40;99.90;;;;;;5072288;28;20038;-63
2023/04/26 12:23:49;;;;;;;3.70;2.20;;;9.40;99.90;;;;;;5075037;28;20029;-63
2023/04/26 12:26:15;;;;;;;8.37;2.03;;;9.50;99.90;;;;;;5074855;28;20039;-62
2023/04/26 12:28:41;;;;;;;5.40;2.20;;;9.60;99.90;;;;;;5076909;28;20044;-62
2023/04/26 12:31:07;;;;;;;5.80;1.93;;;9.60;99.90;;;;;;5072995;28;20090;-63
2023/04/26 12:33:33;;;;;;;5.30;1.70;;;9.70;99.90;;;;;;5071367;28;20404;-62
2023/04/26 12:36:09;;;;;;;8.40;1.97;;;9.90;99.90;;;;;;5068004;28;20763;-62
2023/04/26 12:38:35;;;;;;;3.50;2.10;;;10.10;99.90;;;;;;5069630;28;20287;-62
2023/04/26 12:41:01;;;;;;;3.33;1.65;;;9.90;99.90;;;;;;5088259;28;20028;-62
2023/04/26 12:43:26;;;;;;;5.80;2.00;;;10.10;99.90;;;;;;5070256;28;20032;-78
2023/04/26 12:45:52;;;;;;;5.73;1.20;;;10.50;99.90;;;;;;5067600;28;20066;-68
2023/04/26 12:48:18;;;;;;;2.63;1.50;;;10.80;99.90;;;;;;5071507;28;20299;-62
2023/04/26 12:50:44;;;;;;;4.53;1.70;;;11.20;99.90;;;;;;5075506;28;20040;-63
2023/04/26 12:53:10;;;;;;;5.35;1.48;;;11.10;99.90;;;;;;5066612;28;20045;-62
2023/04/26 12:55:36;;;;;;;2.97;1.80;;;10.30;99.90;;;;;;5062524;28;20059;-62
2023/04/26 12:58:02;;;;;;;3.60;1.13;;;9.80;99.90;;;;;;5076971;28;20025;-62